Time;durP1;ratioP1;P1;durP2;ratioP2;P2;SDS_P1;SDS_P2;PMS_P1;PMS_P2;Temp;Humidity;BMP_temperature;BMP_pressure;BME280_temperature;BME280_humidity;BME280_pressure;Samples;Min_cycle;Max_cycle;Signal;HPM_P1;HPM_P2
2023/12/13 00:03:54;;;;;;;;;;;;;;;;;;;;;
2023/12/13 00:17:51;;;;;;;;;;;;;;;;;;;;;
2023/12/13 00:20:29;;;;;;;7.47;3.30;;;8.50;97.80;;;;;;761956;185;26522;-87
2023/12/13 00:23:18;;;;;;;10.47;3.37;;;8.60;97.80;;;;;;776390;184;26486;-89
2023/12/13 00:26:08;;;;;;;4.97;2.43;;;8.70;97.90;;;;;;770610;184;27004;-86
2023/12/13 00:31:28;;;;;;;5.13;3.30;;;8.70;97.30;;;;;;754393;189;26611;-89
2023/12/13 00:34:16;;;;;;;9.00;4.20;;;8.70;97.60;;;;;;750972;181;26494;-88
2023/12/13 00:36:50;;;;;;;6.13;2.50;;;8.60;97.60;;;;;;768612;183;26507;-89
2023/12/13 00:39:20;;;;;;;7.43;2.40;;;8.60;97.60;;;;;;766408;187;27135;-88
2023/12/13 00:41:57;;;;;;;9.90;3.83;;;8.60;97.70;;;;;;763522;186;26543;-88
2023/12/13 00:44:28;;;;;;;5.57;2.50;;;8.60;97.70;;;;;;767977;186;26486;-87
2023/12/13 00:47:04;;;;;;;5.37;2.27;;;8.60;97.60;;;;;;767136;184;26534;-87
2023/12/13 00:49:45;;;;;;;8.93;2.77;;;8.70;97.50;;;;;;766867;186;26514;-88
2023/12/13 00:55:01;;;;;;;5.90;2.30;;;8.70;97.60;;;;;;767325;183;26506;-88
2023/12/13 00:57:36;;;;;;;9.10;3.00;;;8.70;98.00;;;;;;765204;187;26560;-88
2023/12/13 01:00:17;;;;;;;;;;;;;;;;;;;;;
2023/12/13 01:02:52;;;;;;;5.17;2.20;;;8.80;97.70;;;;;;767730;186;26505;-87
2023/12/13 01:05:25;;;;;;;7.03;3.37;;;8.80;97.40;;;;;;768544;187;26499;-88
2023/12/13 01:07:55;;;;;;;6.90;3.27;;;8.80;97.40;;;;;;781179;175;26539;-87
2023/12/13 01:10:43;;;;;;;5.17;2.20;;;8.80;97.20;;;;;;769882;184;26549;-88
2023/12/13 01:13:19;;;;;;;10.33;4.50;;;8.80;97.30;;;;;;767655;187;27069;-87
2023/12/13 01:15:59;;;;;;;13.97;5.10;;;8.80;97.40;;;;;;767895;186;26933;-89
2023/12/13 01:18:41;;;;;;;;;;;;;;;;;;;;;
2023/12/13 01:21:08;;;;;;;6.47;2.73;;;8.90;97.40;;;;;;769292;186;26506;-88
2023/12/13 01:23:44;;;;;;;9.60;3.37;;;8.90;97.20;;;;;;768069;184;26558;-88
2023/12/13 01:26:11;;;;;;;20.07;8.77;;;8.90;97.00;;;;;;765733;187;26518;-89
2023/12/13 01:28:47;;;;;;;9.53;2.60;;;9.00;96.90;;;;;;764805;187;27070;-87
2023/12/13 01:31:20;;;;;;;10.10;3.23;;;9.00;96.80;;;;;;767661;187;26487;-87
2023/12/13 01:34:02;;;;;;;4.77;2.07;;;9.10;96.90;;;;;;765438;187;26526;-87
2023/12/13 01:36:35;;;;;;;4.87;2.43;;;9.10;96.50;;;;;;760084;187;27068;-87
2023/12/13 01:39:07;;;;;;;7.57;2.93;;;9.10;96.50;;;;;;760207;187;26516;-88
2023/12/13 01:41:39;;;;;;;29.30;10.73;;;9.10;96.80;;;;;;773614;184;26498;-88
2023/12/13 01:44:18;;;;;;;10.53;3.13;;;9.10;96.80;;;;;;771152;184;26476;-87
2023/12/13 01:46:49;;;;;;;7.07;2.80;;;9.20;96.60;;;;;;771542;184;26498;-89
2023/12/13 01:49:23;;;;;;;12.43;5.53;;;9.20;96.50;;;;;;773523;185;26482;-87
2023/12/13 01:51:50;;;;;;;15.37;4.17;;;9.20;96.90;;;;;;772680;185;26514;-86
2023/12/13 01:54:25;;;;;;;5.60;3.00;;;9.10;97.00;;;;;;777054;184;26481;-89
2023/12/13 01:57:03;;;;;;;10.13;3.27;;;9.10;97.20;;;;;;776296;185;27043;-88
2023/12/13 01:59:47;;;;;;;19.57;8.10;;;9.10;97.50;;;;;;774413;185;27057;-88
2023/12/13 02:05:15;;;;;;;9.00;2.87;;;9.10;97.90;;;;;;774110;184;26474;-87
2023/12/13 02:07:55;;;;;;;7.90;3.30;;;9.10;97.90;;;;;;772946;185;27042;-87
2023/12/13 02:10:32;;;;;;;9.43;2.93;;;9.20;97.50;;;;;;776531;185;26482;-87
2023/12/13 02:13:06;;;;;;;6.33;2.80;;;9.10;97.50;;;;;;773329;185;26491;-87
2023/12/13 02:18:26;;;;;;;12.07;3.30;;;9.20;97.30;;;;;;713457;183;27108;-87
2023/12/13 02:21:14;;;;;;;10.17;4.33;;;9.10;97.40;;;;;;766820;186;26503;-88
2023/12/13 02:23:44;;;;;;;14.33;4.27;;;9.10;97.20;;;;;;763364;187;26550;-88
2023/12/13 02:26:15;;;;;;;9.27;3.83;;;9.20;97.60;;;;;;787965;179;26520;-89
2023/12/13 02:28:42;;;;;;;8.17;2.80;;;9.20;97.30;;;;;;782980;179;26448;-88
2023/12/13 02:31:33;;;;;;;5.10;2.83;;;9.10;97.10;;;;;;760494;189;27056;-88
2023/12/13 02:34:08;;;;;;;8.30;3.00;;;9.20;97.10;;;;;;761610;188;26574;-87
2023/12/13 02:36:38;;;;;;;7.50;2.80;;;9.10;97.30;;;;;;780735;181;26656;-89
2023/12/13 02:39:09;;;;;;;5.30;2.90;;;9.10;97.40;;;;;;780543;182;26639;-87
2023/12/13 02:41:37;;;;;;;9.67;3.40;;;9.10;97.40;;;;;;777668;183;26470;-88
2023/12/13 02:44:11;;;;;;;7.80;3.10;;;9.20;97.40;;;;;;777398;183;27006;-86
2023/12/13 02:46:57;;;;;;;11.87;3.20;;;9.10;97.20;;;;;;759597;188;26557;-88
2023/12/13 02:49:26;;;;;;;10.50;3.50;;;9.20;96.90;;;;;;783061;181;27192;-90
2023/12/13 02:51:56;;;;;;;9.03;3.07;;;9.20;97.20;;;;;;777565;183;26455;-88
2023/12/13 02:54:31;;;;;;;8.00;2.87;;;9.20;97.20;;;;;;762223;187;27062;-89
2023/12/13 02:57:01;;;;;;;11.17;4.03;;;9.20;97.30;;;;;;769557;183;26495;-87
2023/12/13 02:59:40;;;;;;;7.70;3.17;;;9.20;97.20;;;;;;778532;182;26506;-89
2023/12/13 03:02:12;;;;;;;12.73;4.40;;;9.20;97.50;;;;;;781775;183;26523;-87
2023/12/13 03:05:07;;;;;;;12.33;4.90;;;9.20;97.80;;;;;;779935;182;26458;-88
2023/12/13 03:07:59;;;;;;;;;;;;;;;;;;;;;
2023/12/13 03:13:36;;;;;;;12.40;4.20;;;9.00;97.90;;;;;;781892;181;26580;-90
2023/12/13 03:16:24;;;;;;;11.90;4.30;;;9.10;98.00;;;;;;781844;179;26802;-89
2023/12/13 03:21:52;;;;;;;13.60;5.80;;;9.10;97.80;;;;;;732492;192;26573;-89
2023/12/13 03:24:25;;;;;;;10.30;4.97;;;9.10;97.90;;;;;;736531;191;27128;-88
2023/12/13 03:26:55;;;;;;;11.57;5.00;;;9.10;98.10;;;;;;737226;190;26546;-88
2023/12/13 03:29:36;;;;;;;15.90;4.43;;;9.10;97.70;;;;;;749631;185;26543;-88
2023/12/13 03:32:14;;;;;;;12.37;4.80;;;9.00;97.60;;;;;;737658;192;26523;-88
2023/12/13 03:35:00;;;;;;;19.37;5.20;;;9.00;97.50;;;;;;737803;191;26530;-89
2023/12/13 03:40:15;;;;;;;13.87;4.33;;;8.90;97.60;;;;;;738581;194;26602;-89
2023/12/13 03:45:35;;;;;;;10.90;4.13;;;8.90;97.90;;;;;;737486;194;26518;-88
2023/12/13 03:48:14;;;;;;;15.43;4.77;;;8.90;97.80;;;;;;724351;195;26540;-88
2023/12/13 03:50:47;;;;;;;10.87;4.10;;;8.80;97.90;;;;;;744256;189;26505;-89
2023/12/13 03:53:42;;;;;;;11.43;3.93;;;8.90;97.80;;;;;;737114;191;27099;-88
2023/12/13 03:56:23;;;;;;;10.93;3.80;;;8.90;97.90;;;;;;739230;191;26556;-89
2023/12/13 03:59:13;;;;;;;12.43;4.27;;;8.80;97.70;;;;;;734324;194;27074;-88
2023/12/13 04:01:56;;;;;;;6.40;4.30;;;8.90;97.80;;;;;;743752;191;26531;-88
2023/12/13 04:04:33;;;;;;;16.20;5.40;;;8.80;97.90;;;;;;734714;195;26515;-89
2023/12/13 04:06:59;;;;;;;13.10;4.27;;;8.80;98.30;;;;;;742631;193;26549;-89
2023/12/13 04:09:38;;;;;;;12.27;4.30;;;8.90;98.10;;;;;;748478;191;26501;-90
2023/12/13 04:12:17;;;;;;;11.77;4.13;;;8.90;97.80;;;;;;738854;190;26596;-90
2023/12/13 04:14:58;;;;;;;16.47;4.17;;;8.90;97.80;;;;;;728747;193;27084;-88
2023/12/13 04:17:35;;;;;;;13.80;4.67;;;8.90;97.80;;;;;;731664;193;26569;-88
2023/12/13 04:20:22;;;;;;;10.33;4.90;;;8.90;97.70;;;;;;732028;191;26553;-89
2023/12/13 04:23:15;;;;;;;16.43;4.47;;;8.90;97.80;;;;;;735542;192;26559;-88
2023/12/13 04:25:54;;;;;;;10.33;4.63;;;8.90;97.90;;;;;;735127;191;26519;-89
2023/12/13 07:22:53;;;;;;;15.70;4.63;;;8.30;98.90;;;;;;729690;171;26503;-80
2023/12/13 07:25:22;;;;;;;19.03;4.63;;;8.40;99.10;;;;;;780563;182;26522;-79
2023/12/13 07:27:53;;;;;;;18.10;4.97;;;8.60;99.30;;;;;;756323;187;26574;-80
2023/12/13 07:30:28;;;;;;;14.90;5.67;;;8.60;99.10;;;;;;757514;189;26531;-80
2023/12/13 07:32:57;;;;;;;18.90;6.77;;;8.60;99.10;;;;;;782372;184;26508;-80
2023/12/13 07:35:25;;;;;;;16.93;5.97;;;8.60;99.00;;;;;;763837;183;26564;-79
2023/12/13 07:40:37;;;;;;;11.53;4.77;;;8.50;98.80;;;;;;720913;176;26564;-78
2023/12/13 07:43:07;;;;;;;17.73;4.80;;;8.60;98.80;;;;;;765510;186;27083;-75
2023/12/13 07:45:43;;;;;;;16.73;5.17;;;9.10;99.20;;;;;;770258;183;26503;-79
2023/12/13 07:48:08;;;;;;;20.47;5.07;;;9.20;98.70;;;;;;773329;184;26481;-78
2023/12/13 07:50:38;;;;;;;13.43;4.53;;;9.20;97.80;;;;;;778480;181;27046;-78
2023/12/13 07:53:06;;;;;;;17.37;4.70;;;9.20;97.50;;;;;;766098;185;26528;-79
2023/12/13 07:55:35;;;;;;;18.97;6.70;;;9.10;97.10;;;;;;758572;187;26490;-79
2023/12/13 07:58:01;;;;;;;18.20;5.17;;;9.10;97.50;;;;;;750287;191;26512;-78
2023/12/13 08:03:49;;;;;;;16.20;4.80;;;9.10;97.30;;;;;;792512;176;26501;-87
2023/12/13 08:06:18;;;;;;;13.07;4.50;;;8.90;97.50;;;;;;800933;176;26485;-83
2023/12/13 08:08:42;;;;;;;15.80;5.20;;;8.90;97.60;;;;;;799803;179;27023;-86
2023/12/13 08:11:08;;;;;;;26.87;5.67;;;8.70;97.20;;;;;;789243;179;26486;-84
2023/12/13 08:13:35;;;;;;;13.67;5.13;;;8.70;97.30;;;;;;800573;179;27045;-82
2023/12/13 08:16:02;;;;;;;20.17;5.20;;;8.70;97.50;;;;;;794000;179;26490;-82
2023/12/13 08:18:48;;;;;;;16.10;5.47;;;8.60;97.40;;;;;;783605;181;26480;-83
2023/12/13 08:27:06;;;;;;;13.40;5.70;;;8.60;97.80;;;;;;791994;177;26433;-83
2023/12/13 08:29:33;;;;;;;13.80;5.43;;;8.60;97.90;;;;;;783221;180;26540;-79
2023/12/13 08:31:59;;;;;;;17.13;5.60;;;8.60;98.20;;;;;;785461;182;26533;-85
2023/12/13 08:34:29;;;;;;;21.13;7.47;;;8.60;98.00;;;;;;778353;183;26489;-84
2023/12/13 08:36:56;;;;;;;16.57;6.07;;;8.60;98.00;;;;;;781929;180;27084;-85
2023/12/13 08:39:22;;;;;;;15.23;5.17;;;8.70;98.40;;;;;;802219;175;27101;-83
2023/12/13 08:41:53;;;;;;;18.63;5.63;;;8.70;98.20;;;;;;802172;178;26460;-80
2023/12/13 08:47:03;;;;;;;16.77;7.00;;;8.80;98.30;;;;;;832411;170;26972;-82
2023/12/13 08:52:02;;;;;;;16.60;5.20;;;8.80;98.20;;;;;;838180;171;26372;-83
2023/12/13 08:54:29;;;;;;;18.23;5.30;;;8.80;97.80;;;;;;839043;171;26400;-86
2023/12/13 09:52:22;;;;;;;13.17;6.07;;;9.50;96.80;;;;;;749609;173;26522;-82
2023/12/13 09:54:49;;;;;;;14.37;4.90;;;9.60;96.90;;;;;;795516;180;26519;-78
2023/12/13 09:57:18;;;;;;;15.00;5.20;;;9.80;97.20;;;;;;785616;179;26490;-76
2023/12/13 09:59:47;;;;;;;16.30;5.40;;;10.00;96.90;;;;;;811107;172;26573;-80
2023/12/13 10:05:17;;;;;;;20.07;6.17;;;10.20;95.70;;;;;;797714;177;26453;-78
2023/12/13 10:07:44;;;;;;;16.43;5.53;;;10.10;95.20;;;;;;814843;173;27085;-78
2023/12/13 10:10:10;;;;;;;13.97;5.70;;;10.40;95.60;;;;;;796176;180;26495;-78
2023/12/13 10:12:38;;;;;;;12.77;6.70;;;10.60;95.80;;;;;;797176;179;27047;-78
2023/12/13 10:15:10;;;;;;;15.50;6.60;;;10.60;94.70;;;;;;797733;179;26482;-78
2023/12/13 10:17:36;;;;;;;13.60;6.30;;;10.70;94.90;;;;;;816165;176;26507;-79
2023/12/13 10:20:03;;;;;;;15.23;6.10;;;10.80;94.60;;;;;;801557;176;26477;-78
2023/12/13 10:22:29;;;;;;;16.67;5.87;;;10.90;94.70;;;;;;800033;176;26448;-78
2023/12/13 10:24:56;;;;;;;14.20;5.47;;;11.00;94.80;;;;;;801893;178;26447;-76
2023/12/13 10:27:23;;;;;;;12.27;5.40;;;11.10;94.10;;;;;;802441;175;26513;-81
2023/12/13 10:29:49;;;;;;;18.00;6.13;;;11.20;93.90;;;;;;800294;179;26469;-83
2023/12/13 10:32:18;;;;;;;13.00;5.07;;;11.30;94.20;;;;;;801588;179;26467;-79
2023/12/13 10:57:02;;;;;;;15.27;5.37;;;11.80;92.30;;;;;;783063;180;26480;-91
2023/12/13 11:05:37;;;;;;;18.00;6.97;;;12.10;92.10;;;;;;781014;177;26505;-88
2023/12/13 11:08:27;;;;;;;16.70;8.20;;;12.10;91.50;;;;;;783285;179;27034;-86
2023/12/13 11:11:14;;;;;;;13.30;6.77;;;12.10;91.70;;;;;;791606;181;26470;-86
2023/12/13 11:13:53;;;;;;;15.43;6.17;;;12.00;92.60;;;;;;785820;180;27069;-87
2023/12/13 11:16:31;;;;;;;14.33;6.07;;;12.10;92.00;;;;;;795432;180;26458;-86
2023/12/13 11:19:04;;;;;;;15.53;6.40;;;12.10;92.10;;;;;;795652;179;27023;-85
2023/12/13 11:21:35;;;;;;;15.93;6.23;;;12.10;92.10;;;;;;795622;179;26469;-86
2023/12/13 11:24:09;;;;;;;22.10;7.70;;;12.20;91.50;;;;;;796609;180;26484;-87
2023/12/13 11:26:49;;;;;;;;;;;;;;;;;;;;;
2023/12/13 11:29:25;;;;;;;15.87;5.53;;;12.40;92.40;;;;;;784109;181;26498;-84
2023/12/13 11:32:00;;;;;;;20.80;6.10;;;12.40;90.70;;;;;;785535;181;26445;-84
2023/12/13 11:35:03;;;;;;;26.03;10.70;;;12.50;91.70;;;;;;783746;181;26538;-85
2023/12/13 11:37:40;;;;;;;24.70;12.53;;;12.60;92.40;;;;;;797829;179;26472;-86
2023/12/13 11:40:23;;;;;;;23.00;10.47;;;12.60;90.30;;;;;;797761;179;26461;-85
2023/12/13 11:42:54;;;;;;;130.03;52.23;;;12.40;88.90;;;;;;795957;179;27025;-86
2023/12/13 11:45:36;;;;;;;70.93;29.77;;;12.20;88.60;;;;;;796762;179;27358;-86
2023/12/13 11:48:09;;;;;;;44.50;16.10;;;12.30;88.30;;;;;;796921;179;26472;-86
2023/12/13 11:50:48;;;;;;;110.40;43.93;;;12.40;86.40;;;;;;795635;180;26457;-86
2023/12/13 11:53:23;;;;;;;74.67;28.80;;;12.50;89.20;;;;;;796075;180;26528;-86
2023/12/13 11:55:58;;;;;;;26.37;10.63;;;12.60;87.70;;;;;;782353;183;27119;-85
2023/12/13 11:58:29;;;;;;;115.43;52.37;;;12.70;84.40;;;;;;790593;182;26522;-86
2023/12/13 12:01:13;;;;;;;49.20;19.83;;;12.70;87.30;;;;;;782181;183;27005;-86
2023/12/13 12:03:41;;;;;;;27.07;10.63;;;12.60;86.60;;;;;;787921;181;26475;-87
2023/12/13 12:06:33;;;;;;;48.03;19.90;;;12.50;84.10;;;;;;814400;173;26468;-87
2023/12/13 12:09:27;;;;;;;152.20;59.80;;;12.40;84.40;;;;;;802765;177;27057;-85
2023/12/13 12:12:00;;;;;;;102.17;39.33;;;12.20;82.40;;;;;;803759;176;26486;-85
2023/12/13 12:14:44;;;;;;;81.40;36.40;;;12.30;86.90;;;;;;807682;176;26494;-85
2023/12/13 12:19:48;;;;;;;127.13;54.53;;;12.70;87.50;;;;;;809204;177;26991;-83
2023/12/13 12:22:15;;;;;;;28.03;9.20;;;12.70;84.50;;;;;;803374;174;26432;-85
2023/12/13 12:24:41;;;;;;;16.37;6.83;;;12.50;82.80;;;;;;804942;173;26444;-88
2023/12/13 12:27:09;;;;;;;18.03;6.17;;;12.30;83.20;;;;;;799076;176;27054;-87
2023/12/13 12:29:41;;;;;;;15.87;5.93;;;12.30;83.20;;;;;;803439;177;26458;-86
2023/12/13 12:32:26;;;;;;;13.40;4.80;;;12.40;86.30;;;;;;803100;176;28051;-87
2023/12/13 12:34:53;;;;;;;13.67;4.97;;;12.40;83.90;;;;;;807094;176;26995;-86
2023/12/13 12:40:44;;;;;;;;;;;;;;;;;;;;;
2023/12/13 12:46:09;;;;;;;21.60;7.53;;;13.60;79.80;;;;;;791187;172;26506;-86
2023/12/13 12:48:42;;;;;;;18.33;5.17;;;13.80;77.70;;;;;;788670;179;26484;-89
2023/12/13 12:51:25;;;;;;;16.63;4.90;;;13.50;88.70;;;;;;789440;179;26480;-88
2023/12/13 12:54:17;;;;;;;34.70;13.40;;;13.30;88.60;;;;;;766767;186;26549;-88
2023/12/13 12:56:46;;;;;;;37.73;16.53;;;13.50;83.20;;;;;;762883;182;26583;-86
2023/12/13 12:59:23;;;;;;;29.10;12.93;;;13.40;82.60;;;;;;774074;183;26547;-87
2023/12/13 13:01:53;;;;;;;35.90;13.23;;;13.50;81.20;;;;;;775279;183;26555;-87
2023/12/13 13:04:26;;;;;;;77.73;30.53;;;13.70;78.50;;;;;;774345;183;26508;-86
2023/12/13 13:07:00;;;;;;;52.60;21.70;;;13.40;76.30;;;;;;762065;184;27066;-88
2023/12/13 13:09:31;;;;;;;22.80;9.07;;;13.20;77.20;;;;;;766561;186;26477;-88
2023/12/13 13:14:42;;;;;;;21.47;6.47;;;12.90;80.20;;;;;;776153;184;27577;-89
2023/12/13 13:20:12;;;;;;;13.93;4.13;;;14.20;79.70;;;;;;765645;187;26486;-87
2023/12/13 13:22:56;;;;;;;17.67;6.77;;;14.90;71.50;;;;;;760408;186;27058;-87
2023/12/13 13:25:29;;;;;;;63.30;26.83;;;14.40;72.10;;;;;;768935;186;26588;-87
2023/12/13 13:28:25;;;;;;;121.73;48.63;;;15.00;68.10;;;;;;769181;184;27069;-88
2023/12/13 13:31:19;;;;;;;38.63;17.33;;;14.70;70.80;;;;;;769527;187;26468;-90
2023/12/13 13:33:57;;;;;;;22.27;9.17;;;14.10;69.30;;;;;;761128;184;26503;-89
2023/12/13 13:36:56;;;;;;;15.90;4.97;;;13.80;70.10;;;;;;769367;184;27063;-87
2023/12/13 13:40:02;;;;;;;24.93;6.83;;;13.60;71.60;;;;;;768529;186;28167;-88
2023/12/13 13:42:47;;;;;;;70.87;32.47;;;14.20;72.50;;;;;;771512;185;26517;-87
2023/12/13 13:48:18;;;;;;;16.33;4.30;;;15.80;64.70;;;;;;769272;184;26517;-88
2023/12/13 13:51:19;;;;;;;19.23;6.37;;;15.10;62.90;;;;;;772588;185;26484;-90
2023/12/13 13:56:40;;;;;;;51.00;24.10;;;15.40;68.50;;;;;;752521;183;26515;-87
2023/12/13 14:02:13;;;;;;;39.87;17.80;;;16.20;60.80;;;;;;756572;185;26461;-88
2023/12/13 14:13:35;;;;;;;190.10;83.17;;;14.80;65.30;;;;;;778391;183;26451;-86
2023/12/13 14:16:14;;;;;;;111.83;46.83;;;14.30;64.70;;;;;;769047;186;27095;-86
2023/12/13 14:18:41;;;;;;;57.27;27.43;;;13.70;70.30;;;;;;769472;186;27086;-87
2023/12/13 14:21:08;;;;;;;201.53;89.13;;;13.20;70.20;;;;;;756717;187;26509;-87
2023/12/13 14:23:41;;;;;;;25.17;9.43;;;13.00;71.00;;;;;;776807;184;26487;-87
2023/12/13 14:26:20;;;;;;;42.73;16.93;;;12.70;71.60;;;;;;786812;175;26595;-86
2023/12/13 14:28:55;;;;;;;47.13;18.07;;;12.40;71.90;;;;;;797277;180;26468;-87
2023/12/13 14:31:36;;;;;;;153.27;60.40;;;12.20;73.60;;;;;;797362;179;26475;-86
2023/12/13 14:34:25;;;;;;;159.23;71.67;;;12.10;76.40;;;;;;797793;180;27195;-87
2023/12/13 14:36:52;;;;;;;42.43;15.90;;;12.00;74.20;;;;;;795617;177;26484;-87
2023/12/13 14:39:25;;;;;;;79.30;32.00;;;11.90;75.70;;;;;;795263;180;26454;-86
2023/12/13 14:42:12;;;;;;;;;;;;;;;;;;;;;
2023/12/13 14:45:09;;;;;;;366.80;133.40;;;11.70;77.80;;;;;;791024;181;26554;-86
2023/12/13 14:47:52;;;;;;;115.40;55.00;;;11.70;75.00;;;;;;795020;177;27833;-84
2023/12/13 14:50:19;;;;;;;83.90;35.77;;;11.60;78.70;;;;;;796106;179;26453;-86
2023/12/13 14:52:56;;;;;;;117.20;43.20;;;11.60;77.80;;;;;;783409;180;26468;-86
2023/12/13 14:55:23;;;;;;;41.63;16.70;;;11.60;78.60;;;;;;798572;176;26480;-87
2023/12/13 14:58:40;;;;;;;;;;;;;;;;;;;;;
2023/12/13 15:00:40;;;;;;;163.77;62.37;;;11.50;76.10;;;;;;789251;180;27036;-85
2023/12/13 15:42:13;;;;;;;17.73;5.27;;;11.00;80.20;;;;;;818763;175;26408;-92
2023/12/13 15:47:48;;;;;;;21.30;5.43;;;11.00;82.40;;;;;;804918;175;26449;-87
2023/12/13 15:50:21;;;;;;;15.70;5.97;;;11.00;84.00;;;;;;811446;173;27036;-87
2023/12/13 15:58:28;;;;;;;21.97;5.30;;;11.00;87.60;;;;;;807919;173;27039;-88
2023/12/13 16:01:04;;;;;;;21.77;7.20;;;10.90;86.40;;;;;;808639;176;28152;-87
2023/12/13 16:09:56;;;;;;;20.37;5.87;;;10.80;85.60;;;;;;805335;176;26448;-88
2023/12/13 16:15:12;;;;;;;20.40;5.70;;;10.80;86.20;;;;;;808339;176;26758;-85
2023/12/13 16:18:00;;;;;;;19.57;5.07;;;10.70;86.90;;;;;;808867;173;26466;-86
2023/12/13 16:20:42;;;;;;;19.93;5.97;;;10.70;87.10;;;;;;811625;173;26454;-87
2023/12/13 16:26:05;;;;;;;20.03;5.63;;;10.70;86.80;;;;;;806465;173;26477;-87
2023/12/13 16:28:50;;;;;;;19.77;5.20;;;10.60;87.70;;;;;;812268;174;26437;-86
2023/12/13 16:37:03;;;;;;;19.07;7.53;;;10.60;87.90;;;;;;784978;182;26499;-87
2023/12/13 16:39:58;;;;;;;;;;;;;;;;;;;;;
2023/12/13 16:46:27;;;;;;;;;;;;;;;;;;;;;
2023/12/13 16:51:41;;;;;;;20.20;6.73;;;10.70;89.60;;;;;;804451;176;26461;-88
2023/12/13 16:57:04;;;;;;;17.50;5.03;;;10.50;90.20;;;;;;804366;176;26501;-89
2023/12/13 17:02:58;;;;;;;;;;;;;;;;;;;;;
2023/12/13 17:08:26;;;;;;;15.73;4.67;;;10.70;90.20;;;;;;760193;173;26467;-87
2023/12/13 17:11:20;;;;;;;;;;;;;;;;;;;;;
2023/12/13 17:19:42;;;;;;;;;;;;;;;;;;;;;
2023/12/13 17:22:09;;;;;;;13.23;4.63;;;10.70;90.70;;;;;;794071;179;26450;-87
2023/12/13 17:25:07;;;;;;;16.57;4.97;;;10.80;90.70;;;;;;786173;183;26494;-87
2023/12/13 17:28:14;;;;;;;;;;;;;;;;;;;;;
2023/12/13 17:30:40;;;;;;;17.53;4.93;;;10.70;90.40;;;;;;778703;179;26557;-87
2023/12/13 17:36:06;;;;;;;20.97;7.07;;;10.60;90.10;;;;;;787205;178;26470;-86
2023/12/13 17:39:11;;;;;;;25.03;7.20;;;10.60;91.30;;;;;;785130;179;27069;-85
2023/12/13 17:53:11;;;;;;;19.00;6.80;;;10.70;91.30;;;;;;741251;173;26551;-87
2023/12/13 17:58:24;;;;;;;19.13;7.70;;;10.60;92.60;;;;;;714310;177;26543;-84
2023/12/13 18:00:55;;;;;;;18.13;7.13;;;10.70;91.50;;;;;;765374;187;27387;-88
2023/12/13 18:06:25;;;;;;;18.77;6.23;;;10.70;91.40;;;;;;764840;186;26714;-85
2023/12/13 18:20:25;;;;;;;20.90;7.97;;;10.60;92.50;;;;;;789470;181;26462;-89
2023/12/13 18:25:57;;;;;;;;;;;;;;;;;;;;;
2023/12/13 18:29:05;;;;;;;;;;;;;;;;;;;;;
2023/12/13 18:34:53;;;;;;;17.67;6.70;;;10.60;92.30;;;;;;792918;178;26535;-84
2023/12/13 18:37:22;;;;;;;22.47;8.77;;;10.60;91.70;;;;;;801047;178;26412;-87
2023/12/13 18:40:19;;;;;;;20.67;7.73;;;10.60;91.90;;;;;;799842;178;26471;-86
2023/12/13 18:48:48;;;;;;;21.50;7.83;;;10.50;93.10;;;;;;801723;178;26490;-87
2023/12/13 18:51:32;;;;;;;21.63;7.80;;;10.50;92.80;;;;;;801360;177;26698;-83
2023/12/13 19:10:50;;;;;;;25.77;9.77;;;10.30;93.30;;;;;;741047;176;26408;-87
2023/12/13 19:16:49;;;;;;;21.70;9.07;;;10.30;94.70;;;;;;791835;181;26490;-88
2023/12/13 19:19:40;;;;;;;31.23;12.97;;;10.30;93.80;;;;;;789834;181;27022;-86
2023/12/13 19:22:17;;;;;;;25.73;10.17;;;10.20;94.10;;;;;;782220;179;26473;-86
2023/12/13 19:25:11;;;;;;;25.37;8.23;;;10.20;94.10;;;;;;789343;180;26662;-86
2023/12/13 19:28:02;;;;;;;19.67;9.73;;;10.20;94.00;;;;;;792425;180;26533;-83
2023/12/13 19:33:19;;;;;;;24.13;8.77;;;10.30;94.00;;;;;;786300;180;26435;-86
2023/12/13 19:36:03;;;;;;;22.23;9.60;;;10.20;93.20;;;;;;788280;181;26506;-87
2023/12/13 19:38:47;;;;;;;27.93;10.53;;;10.10;93.60;;;;;;789108;182;27022;-86
2023/12/13 19:58:45;;;;;;;21.30;9.43;;;9.80;94.70;;;;;;753492;186;26570;-83
2023/12/13 20:01:23;;;;;;;21.17;7.63;;;9.70;94.60;;;;;;763375;182;26576;-86
2023/12/13 20:17:47;;;;;;;28.80;14.30;;;9.60;94.90;;;;;;746449;175;26544;-86
2023/12/13 20:20:23;;;;;;;17.90;8.93;;;9.60;94.90;;;;;;808616;175;26474;-87
2023/12/13 20:26:35;;;;;;;;;;;;;;;;;;;;;
2023/12/13 20:51:45;;;;;;;84.97;37.10;;;9.70;95.40;;;;;;753343;190;27133;-89
2023/12/13 20:59:59;;;;;;;58.93;24.13;;;9.70;95.30;;;;;;747415;173;26460;-87
2023/12/13 21:02:36;;;;;;;46.87;19.83;;;9.70;95.30;;;;;;801325;174;26486;-86
2023/12/13 21:08:34;;;;;;;22.00;9.70;;;9.80;94.90;;;;;;815404;174;26415;-86
2023/12/13 21:13:53;;;;;;;28.57;12.03;;;9.80;94.50;;;;;;793551;179;26469;-86
2023/12/13 21:19:35;;;;;;;20.70;10.47;;;9.80;94.70;;;;;;803556;175;26435;-86
2023/12/13 21:25:11;;;;;;;25.20;10.00;;;9.70;94.80;;;;;;798519;180;26468;-87
2023/12/13 21:27:54;;;;;;;27.27;11.40;;;9.70;94.70;;;;;;766847;180;26474;-87
2023/12/13 21:30:30;;;;;;;28.83;10.97;;;9.70;95.00;;;;;;792650;180;26450;-87
2023/12/13 21:33:04;;;;;;;21.70;10.70;;;9.80;95.30;;;;;;795429;177;27022;-87
2023/12/13 21:35:42;;;;;;;23.33;11.73;;;9.80;94.80;;;;;;806452;176;27031;-86
2023/12/13 21:38:29;;;;;;;27.17;11.97;;;9.80;95.50;;;;;;788832;178;26506;-87
2023/12/13 22:14:21;;;;;;;31.23;13.60;;;9.50;96.20;;;;;;758337;173;26572;-87
2023/12/13 22:20:17;;;;;;;38.43;18.20;;;9.60;96.80;;;;;;792116;178;26473;-86
2023/12/13 22:23:02;;;;;;;29.10;13.10;;;9.70;97.50;;;;;;798484;175;26533;-86
2023/12/13 22:25:37;;;;;;;28.77;15.43;;;9.60;97.10;;;;;;787854;182;27019;-87
2023/12/13 22:28:35;;;;;;;34.60;16.00;;;9.50;96.80;;;;;;792708;178;26461;-85
2023/12/13 22:33:40;;;;;;;34.83;17.57;;;9.40;97.00;;;;;;756694;173;26520;-86
2023/12/13 22:36:11;;;;;;;41.90;16.97;;;9.30;97.00;;;;;;812482;175;26427;-85
2023/12/13 22:42:01;;;;;;;37.63;17.93;;;9.40;97.40;;;;;;791636;173;27112;-86
2023/12/13 22:47:36;;;;;;;32.87;18.07;;;9.50;98.00;;;;;;777382;180;26500;-86
2023/12/13 23:01:38;;;;;;;35.10;17.57;;;9.40;97.70;;;;;;795406;179;26465;-85
2023/12/13 23:43:14;;;;;;;65.73;31.77;;;9.30;98.00;;;;;;777209;183;26476;-85
2023/12/13 23:45:54;;;;;;;62.77;31.67;;;9.30;98.10;;;;;;786362;180;26479;-88
2023/12/13 23:51:12;;;;;;;79.87;33.90;;;9.20;97.50;;;;;;798897;179;26473;-86
